Time;durP1;ratioP1;P1;durP2;ratioP2;P2;SDS_P1;SDS_P2;PMS_P1;PMS_P2;Temp;Humidity;BMP_temperature;BMP_pressure;BME280_temperature;BME280_humidity;BME280_pressure;Samples;Min_cycle;Max_cycle;Signal;HPM_P1;HPM_P2
2022/11/17 00:01:58;;;;;;;72.28;51.05;;;17.20;70.80;;;;;;4946306;28;95465;-54
2022/11/17 00:04:25;;;;;;;72.75;51.25;;;17.20;70.80;;;;;;4949765;28;95169;-56
2022/11/17 00:06:51;;;;;;;73.18;51.30;;;17.20;70.80;;;;;;4954518;28;95230;-55
2022/11/17 00:09:17;;;;;;;73.03;51.17;;;17.20;70.80;;;;;;4953952;28;95319;-54
2022/11/17 00:14:35;;;;;;;72.32;50.83;;;17.20;70.80;;;;;;4942429;28;96237;-54
2022/11/17 00:17:09;;;;;;;72.82;50.85;;;17.20;70.80;;;;;;4949575;28;96024;-57
2022/11/17 00:22:20;;;;;;;72.65;51.08;;;17.20;70.90;;;;;;4957030;28;96519;-54
2022/11/17 00:24:47;;;;;;;75.85;50.92;;;17.20;70.70;;;;;;4946595;28;95374;-56
2022/11/17 00:27:13;;;;;;;72.68;51.00;;;17.20;70.70;;;;;;4946843;28;95543;-55
2022/11/17 00:29:38;;;;;;;74.28;50.63;;;17.10;70.80;;;;;;4943178;28;94871;-55
2022/11/17 00:34:49;;;;;;;74.43;51.25;;;17.20;70.70;;;;;;4948031;28;95300;-54
2022/11/17 00:37:15;;;;;;;73.55;51.00;;;17.10;70.70;;;;;;4948995;28;95306;-54
2022/11/17 00:39:41;;;;;;;74.65;51.03;;;17.10;70.60;;;;;;4947659;28;98188;-53
2022/11/17 00:42:07;;;;;;;73.80;51.08;;;17.10;70.60;;;;;;4951380;28;94822;-55
2022/11/17 00:44:33;;;;;;;73.70;51.45;;;17.10;70.60;;;;;;4941878;28;96086;-58
2022/11/17 00:46:58;;;;;;;72.85;51.17;;;17.10;70.60;;;;;;4953371;28;95427;-57
2022/11/17 00:49:24;;;;;;;72.85;51.10;;;17.10;70.60;;;;;;4947528;28;96925;-54
2022/11/17 00:51:50;;;;;;;73.50;51.47;;;17.10;70.60;;;;;;4951837;28;94879;-57
2022/11/17 00:54:16;;;;;;;72.95;51.08;;;17.10;70.60;;;;;;4951102;28;96341;-56
2022/11/17 00:56:42;;;;;;;74.47;51.25;;;17.10;70.70;;;;;;4944345;28;95218;-57
2022/11/17 00:59:08;;;;;;;73.50;51.10;;;17.10;70.70;;;;;;4945064;28;95276;-56
2022/11/17 01:01:34;;;;;;;73.68;51.05;;;17.10;70.60;;;;;;4942513;28;102238;-55
2022/11/17 01:04:04;;;;;;;72.57;51.00;;;17.10;70.70;;;;;;4948413;28;96681;-53
2022/11/17 01:06:31;;;;;;;72.95;51.03;;;17.10;70.80;;;;;;4950456;28;95321;-53
2022/11/17 01:09:01;;;;;;;74.43;51.17;;;17.10;70.70;;;;;;4945380;28;95411;-55
2022/11/17 01:11:27;;;;;;;74.63;51.72;;;17.10;70.60;;;;;;4947287;28;95268;-55
2022/11/17 01:13:55;;;;;;;73.28;51.15;;;17.10;70.60;;;;;;4944946;28;95411;-56
2022/11/17 01:16:21;;;;;;;72.95;50.85;;;17.10;70.50;;;;;;4949465;28;97764;-56
2022/11/17 01:18:48;;;;;;;75.65;51.15;;;17.00;70.50;;;;;;4955096;28;95162;-55
2022/11/17 01:21:16;;;;;;;74.38;51.05;;;17.10;70.60;;;;;;4944994;28;94263;-55
2022/11/17 01:23:44;;;;;;;72.85;51.05;;;17.00;71.20;;;;;;4948745;28;95403;-55
2022/11/17 01:26:15;;;;;;;74.63;51.10;;;17.00;70.50;;;;;;4937199;28;95929;-56
2022/11/17 01:28:42;;;;;;;72.97;50.90;;;17.00;70.40;;;;;;4944693;28;99613;-56
2022/11/17 01:31:14;;;;;;;73.18;51.65;;;17.10;70.50;;;;;;4943353;28;97426;-56
2022/11/17 01:33:40;;;;;;;72.85;50.72;;;17.00;70.40;;;;;;4940935;28;95852;-54
2022/11/17 01:36:10;;;;;;;73.03;50.95;;;17.00;70.40;;;;;;4944924;28;100193;-54
2022/11/17 01:38:36;;;;;;;72.85;50.92;;;17.00;70.50;;;;;;4952925;28;95429;-53
2022/11/17 01:41:04;;;;;;;73.93;51.38;;;17.00;70.40;;;;;;4947360;28;96959;-54
2022/11/17 01:43:39;;;;;;;73.20;50.95;;;17.10;70.60;;;;;;4946970;28;97044;-55
2022/11/17 01:46:12;;;;;;;72.97;51.00;;;17.00;70.50;;;;;;4953037;28;94576;-55
2022/11/17 01:48:39;;;;;;;73.50;51.30;;;17.00;70.50;;;;;;4948029;28;95590;-55
2022/11/17 01:51:05;;;;;;;73.10;51.22;;;17.00;70.60;;;;;;4952037;28;96065;-55
2022/11/17 01:53:33;;;;;;;74.93;51.08;;;16.90;70.60;;;;;;4942562;28;98065;-56
2022/11/17 01:56:04;;;;;;;73.78;51.63;;;17.00;70.60;;;;;;4946660;28;95985;-56
2022/11/17 01:58:38;;;;;;;74.20;51.70;;;17.00;70.50;;;;;;4947782;28;95174;-54
2022/11/17 02:01:04;;;;;;;74.97;51.83;;;17.00;70.60;;;;;;4948870;28;95011;-55
2022/11/17 02:03:33;;;;;;;73.32;51.05;;;17.00;70.60;;;;;;4946084;28;95121;-55
2022/11/17 02:06:17;;;;;;;74.43;51.25;;;17.00;70.50;;;;;;4949417;28;95580;-58
2022/11/17 02:08:46;;;;;;;73.45;50.92;;;17.00;70.60;;;;;;4945742;28;95062;-55
2022/11/17 02:11:15;;;;;;;74.25;51.53;;;16.90;70.50;;;;;;4945703;28;94877;-56
2022/11/17 02:13:41;;;;;;;75.55;51.15;;;16.90;70.50;;;;;;4949523;28;96601;-57
2022/11/17 02:16:11;;;;;;;76.03;51.30;;;16.90;70.50;;;;;;4949223;28;95122;-55
2022/11/17 02:18:37;;;;;;;74.15;51.30;;;17.00;70.50;;;;;;4946902;28;97447;-56
2022/11/17 02:21:21;;;;;;;73.93;51.17;;;16.90;70.50;;;;;;4944482;28;94965;-57
2022/11/17 02:24:14;;;;;;;73.13;50.90;;;16.90;70.40;;;;;;4947507;28;97503;-55
2022/11/17 02:27:13;;;;;;;74.35;51.28;;;16.90;70.50;;;;;;4942360;28;97072;-56
2022/11/17 02:30:01;;;;;;;73.72;51.38;;;16.90;70.50;;;;;;4950843;28;95015;-55
2022/11/17 02:32:38;;;;;;;72.68;50.30;;;16.90;70.60;;;;;;4943247;28;95288;-58
2022/11/17 02:35:37;;;;;;;74.70;50.58;;;16.90;70.70;;;;;;4943453;28;97361;-55
2022/11/17 02:38:29;;;;;;;73.90;50.75;;;16.80;70.70;;;;;;4948183;28;94997;-55
2022/11/17 02:41:16;;;;;;;73.28;50.75;;;16.90;70.70;;;;;;4948671;28;95375;-56
2022/11/17 02:44:04;;;;;;;73.47;51.05;;;16.90;70.60;;;;;;4948608;28;94798;-54
2022/11/17 02:46:41;;;;;;;72.85;50.85;;;16.90;70.60;;;;;;4939025;28;96333;-54
2022/11/17 02:49:18;;;;;;;73.75;51.03;;;16.90;70.70;;;;;;4953756;28;97396;-54
2022/11/17 02:51:47;;;;;;;73.57;51.42;;;16.90;70.60;;;;;;4949121;28;96642;-55
2022/11/17 02:54:13;;;;;;;75.10;51.35;;;16.90;70.70;;;;;;4944191;28;98600;-54
2022/11/17 02:56:43;;;;;;;73.47;50.88;;;16.90;70.60;;;;;;4942869;28;95847;-55
2022/11/17 02:59:12;;;;;;;73.68;51.50;;;16.90;70.70;;;;;;4934979;28;96790;-54
2022/11/17 03:01:59;;;;;;;74.13;51.13;;;16.80;70.60;;;;;;4936312;28;95757;-55
2022/11/17 03:04:51;;;;;;;73.13;50.75;;;16.80;70.60;;;;;;4950494;28;94212;-54
2022/11/17 03:07:48;;;;;;;75.68;51.40;;;16.80;70.60;;;;;;4939731;28;95178;-55
2022/11/17 03:10:22;;;;;;;74.68;51.13;;;16.80;70.60;;;;;;4933071;28;95649;-57
2022/11/17 03:13:12;;;;;;;72.40;50.78;;;16.80;70.70;;;;;;4949582;28;96949;-53
2022/11/17 03:15:55;;;;;;;72.70;51.15;;;16.80;70.80;;;;;;4941689;28;96963;-56
2022/11/17 03:18:29;;;;;;;73.82;50.97;;;16.80;70.70;;;;;;4948639;28;95233;-54
2022/11/17 03:21:18;;;;;;;72.97;51.35;;;16.80;70.60;;;;;;4935198;28;95268;-55
2022/11/17 03:24:06;;;;;;;73.20;51.20;;;16.80;70.80;;;;;;4941357;28;96891;-53
2022/11/17 03:26:46;;;;;;;73.90;50.78;;;16.70;70.70;;;;;;4944945;28;95314;-54
2022/11/17 03:29:16;;;;;;;73.85;51.20;;;16.70;70.80;;;;;;4943958;28;95969;-56
2022/11/17 03:31:45;;;;;;;73.93;50.50;;;16.70;70.80;;;;;;4946388;28;95783;-53
2022/11/17 03:34:14;;;;;;;72.68;50.95;;;16.80;70.90;;;;;;4949461;28;99972;-56
2022/11/17 03:36:45;;;;;;;74.68;51.03;;;16.80;70.90;;;;;;4943483;28;95207;-58
2022/11/17 03:39:27;;;;;;;;;;;16.80;70.80;;;;;;4940931;28;96229;-56
2022/11/17 03:42:00;;;;;;;73.32;51.10;;;16.80;70.80;;;;;;4939006;28;95001;-56
2022/11/17 03:44:28;;;;;;;73.03;50.65;;;16.70;70.80;;;;;;4947941;28;95189;-55
2022/11/17 03:46:55;;;;;;;73.90;50.72;;;16.70;70.80;;;;;;4942746;28;95127;-54
2022/11/17 03:49:41;;;;;;;73.22;50.28;;;16.70;70.80;;;;;;4939298;28;95619;-55
2022/11/17 03:52:06;;;;;;;71.95;50.45;;;16.70;70.80;;;;;;4941074;28;95005;-55
2022/11/17 03:54:34;;;;;;;72.18;50.95;;;16.70;70.80;;;;;;4938265;28;95265;-59
2022/11/17 03:57:14;;;;;;;73.72;50.83;;;16.70;70.60;;;;;;4944285;28;96473;-55
2022/11/17 03:59:57;;;;;;;73.22;50.78;;;16.70;70.90;;;;;;4949641;28;96006;-55
2022/11/17 04:02:24;;;;;;;72.70;51.08;;;16.70;70.80;;;;;;4953146;28;95026;-55
2022/11/17 04:05:06;;;;;;;74.03;51.17;;;16.60;71.00;;;;;;4948219;28;96189;-56
2022/11/17 04:07:38;;;;;;;72.05;50.72;;;16.70;70.90;;;;;;4956289;28;95171;-56
2022/11/17 04:10:06;;;;;;;72.10;50.70;;;16.70;70.80;;;;;;4941748;28;95388;-56
2022/11/17 04:18:00;;;;;;;73.88;51.50;;;16.60;70.90;;;;;;4934466;28;95403;-57
2022/11/17 04:20:34;;;;;;;72.30;50.63;;;16.60;71.00;;;;;;4947128;28;100532;-53
2022/11/17 04:23:08;;;;;;;71.88;51.05;;;16.60;70.80;;;;;;4940225;28;94478;-54
2022/11/17 04:28:37;;;;;;;74.07;50.85;;;16.60;70.80;;;;;;4940691;28;96386;-56
2022/11/17 04:31:21;;;;;;;74.30;50.80;;;16.70;70.70;;;;;;4944096;28;96084;-55
2022/11/17 04:33:57;;;;;;;71.75;50.40;;;16.60;70.70;;;;;;4940206;28;95337;-54
2022/11/17 04:36:44;;;;;;;72.35;50.88;;;16.60;70.60;;;;;;4933551;28;97060;-57
2022/11/17 04:39:14;;;;;;;73.05;50.90;;;16.60;70.70;;;;;;4946867;28;95250;-53
2022/11/17 04:41:52;;;;;;;72.80;50.63;;;16.60;70.60;;;;;;4936441;28;96552;-54
2022/11/17 04:44:21;;;;;;;72.68;51.00;;;16.60;70.70;;;;;;4951185;28;95889;-56
2022/11/17 04:46:46;;;;;;;72.25;50.75;;;16.60;70.70;;;;;;4940659;28;96330;-53
2022/11/17 04:49:13;;;;;;;72.13;50.40;;;16.60;70.70;;;;;;4947907;28;94411;-52
2022/11/17 04:51:40;;;;;;;73.72;50.92;;;16.60;70.70;;;;;;4945884;28;97540;-52
2022/11/17 04:54:07;;;;;;;71.65;50.70;;;16.60;70.70;;;;;;4947310;28;94966;-54
2022/11/17 04:56:33;;;;;;;72.25;50.67;;;16.60;70.60;;;;;;4947014;28;96254;-54
2022/11/17 04:58:58;;;;;;;71.57;50.53;;;16.60;70.60;;;;;;4947385;28;95650;-56
2022/11/17 05:01:26;;;;;;;71.82;50.75;;;16.60;70.60;;;;;;4941628;28;95633;-55
2022/11/17 05:04:00;;;;;;;74.68;50.72;;;16.60;70.70;;;;;;4952740;28;94927;-52
2022/11/17 05:06:37;;;;;;;71.45;50.85;;;16.50;70.70;;;;;;4942447;28;95589;-55
2022/11/17 05:09:11;;;;;;;72.63;50.28;;;16.60;70.70;;;;;;4947710;28;95718;-55
2022/11/17 05:14:23;;;;;;;71.47;50.75;;;16.50;70.60;;;;;;4950199;28;94561;-56
2022/11/17 05:17:04;;;;;;;72.35;50.35;;;16.50;70.70;;;;;;4950994;28;96019;-54
2022/11/17 05:19:32;;;;;;;71.82;50.55;;;16.50;70.70;;;;;;4946752;28;95699;-53
2022/11/17 05:21:58;;;;;;;71.60;50.75;;;16.50;70.60;;;;;;4946348;28;98209;-55
2022/11/17 05:24:25;;;;;;;71.28;50.67;;;16.50;70.60;;;;;;4943331;28;97032;-56
2022/11/17 05:26:51;;;;;;;72.95;50.92;;;16.50;70.60;;;;;;4942463;28;96742;-57
2022/11/17 05:29:18;;;;;;;71.22;50.33;;;16.50;70.60;;;;;;4948540;28;94858;-56
2022/11/17 05:31:44;;;;;;;72.00;50.63;;;16.50;70.80;;;;;;4941813;28;99856;-56
2022/11/17 05:34:11;;;;;;;71.47;50.67;;;16.50;70.80;;;;;;4942095;28;95506;-53
2022/11/17 05:36:38;;;;;;;71.65;50.35;;;16.50;70.70;;;;;;4952383;28;95855;-54
2022/11/17 05:39:04;;;;;;;71.40;50.67;;;16.50;70.70;;;;;;4943238;28;94697;-57
2022/11/17 05:41:30;;;;;;;71.05;50.40;;;16.50;70.70;;;;;;4947840;28;99969;-56
2022/11/17 05:43:56;;;;;;;71.75;50.55;;;16.50;70.70;;;;;;4943544;28;95372;-54
2022/11/17 05:46:23;;;;;;;72.80;51.08;;;16.50;70.70;;;;;;4950029;28;97359;-53
2022/11/17 05:48:50;;;;;;;72.10;49.97;;;16.50;71.50;;;;;;4939514;28;95293;-55
2022/11/17 05:51:18;;;;;;;71.43;50.08;;;16.40;70.70;;;;;;4947095;28;97286;-54
2022/11/17 05:53:44;;;;;;;70.63;50.03;;;16.40;70.70;;;;;;4948105;28;96876;-55
2022/11/17 05:56:29;;;;;;;71.25;50.10;;;16.50;70.80;;;;;;4952245;28;94968;-55
2022/11/17 05:59:18;;;;;;;71.97;50.85;;;16.40;70.80;;;;;;4956604;28;94825;-55
2022/11/17 06:02:16;;;;;;;72.13;50.75;;;16.40;70.80;;;;;;4940108;28;95320;-57
2022/11/17 06:04:42;;;;;;;71.68;50.30;;;16.40;70.80;;;;;;4927683;28;94694;-55
2022/11/17 06:07:08;;;;;;;71.07;50.22;;;16.50;71.00;;;;;;4949905;28;94982;-55
2022/11/17 06:09:37;;;;;;;74.65;51.13;;;16.40;71.10;;;;;;4939549;28;95825;-56
2022/11/17 06:12:03;;;;;;;71.57;50.67;;;16.40;71.30;;;;;;4937687;28;96510;-56
2022/11/17 06:14:29;;;;;;;74.00;51.10;;;16.50;71.50;;;;;;4935182;28;96476;-56
2022/11/17 06:16:59;;;;;;;76.22;51.55;;;16.50;71.50;;;;;;4943820;28;97227;-53
2022/11/17 06:19:32;;;;;;;75.10;50.60;;;16.50;71.60;;;;;;4946337;28;99423;-54
2022/11/17 06:21:58;;;;;;;76.00;51.08;;;16.40;71.80;;;;;;4946345;28;95458;-54
2022/11/17 06:24:24;;;;;;;76.13;51.03;;;16.40;72.10;;;;;;4946106;28;95161;-55
2022/11/17 06:26:50;;;;;;;82.65;51.67;;;16.30;72.50;;;;;;4942786;28;95468;-54
2022/11/17 06:29:16;;;;;;;73.82;50.85;;;16.40;72.80;;;;;;4942826;28;95138;-56
2022/11/17 06:31:43;;;;;;;79.28;51.58;;;16.40;72.50;;;;;;4944340;28;95801;-57
2022/11/17 06:34:10;;;;;;;75.70;51.60;;;16.40;73.00;;;;;;4949689;28;95553;-55
2022/11/17 06:36:35;;;;;;;80.32;51.38;;;16.40;72.30;;;;;;4935344;28;97580;-56
2022/11/17 06:39:01;;;;;;;76.15;50.90;;;16.40;72.20;;;;;;4943685;28;96384;-55
2022/11/17 06:41:27;;;;;;;77.00;51.40;;;16.40;72.10;;;;;;4947735;28;97190;-55
2022/11/17 06:43:52;;;;;;;75.97;50.95;;;16.40;72.20;;;;;;4936865;28;95995;-56
2022/11/17 06:46:18;;;;;;;76.10;51.55;;;16.40;72.20;;;;;;4945851;28;95080;-55
2022/11/17 06:48:44;;;;;;;74.65;50.83;;;16.40;72.10;;;;;;4941867;28;96375;-56
2022/11/17 06:51:09;;;;;;;73.97;51.13;;;16.40;72.10;;;;;;4944136;28;100831;-57
2022/11/17 06:53:35;;;;;;;78.70;51.33;;;16.40;72.30;;;;;;4944081;28;93941;-55
2022/11/17 06:58:28;;;;;;;76.95;50.67;;;16.40;72.10;;;;;;4942197;28;95351;-55
2022/11/17 07:00:54;;;;;;;79.25;51.60;;;16.40;72.00;;;;;;4942183;28;96288;-55
2022/11/17 07:03:19;;;;;;;76.32;50.90;;;16.40;72.10;;;;;;4938181;28;99673;-53
2022/11/17 07:05:45;;;;;;;78.35;51.47;;;16.40;72.10;;;;;;4933192;28;95472;-55
2022/11/17 07:08:11;;;;;;;78.93;51.13;;;16.30;72.40;;;;;;4942239;28;96600;-53
2022/11/17 07:10:37;;;;;;;78.35;50.97;;;16.40;72.80;;;;;;4910790;28;96248;-57
2022/11/17 07:13:03;;;;;;;75.75;51.33;;;16.40;72.80;;;;;;4939786;28;97338;-56
2022/11/17 07:15:28;;;;;;;80.15;52.95;;;16.40;73.20;;;;;;4918064;28;100476;-58
2022/11/17 07:17:54;;;;;;;76.53;51.60;;;16.40;72.60;;;;;;4939840;28;94589;-54
2022/11/17 07:20:20;;;;;;;74.80;50.97;;;16.40;72.60;;;;;;4914030;28;103172;-53
2022/11/17 07:22:46;;;;;;;74.82;51.25;;;16.50;72.60;;;;;;4911845;28;99912;-56
2022/11/17 07:25:11;;;;;;;75.28;51.05;;;16.50;72.60;;;;;;4915110;28;96948;-55
2022/11/17 07:27:37;;;;;;;72.85;50.53;;;16.40;72.30;;;;;;4919212;28;97970;-56
2022/11/17 07:30:05;;;;;;;73.85;50.53;;;16.40;71.80;;;;;;4920614;28;97028;-55
2022/11/17 07:32:34;;;;;;;73.35;51.13;;;16.40;71.40;;;;;;4915077;28;96105;-56
2022/11/17 07:35:00;;;;;;;75.88;50.70;;;16.40;71.20;;;;;;4918869;28;94887;-53
2022/11/17 07:37:27;;;;;;;74.63;50.80;;;16.40;71.10;;;;;;4923530;28;96914;-57
2022/11/17 07:39:53;;;;;;;75.53;51.15;;;16.50;71.30;;;;;;4917495;28;96689;-58
2022/11/17 07:42:18;;;;;;;76.00;51.22;;;16.50;71.60;;;;;;4924072;28;95393;-55
2022/11/17 07:44:44;;;;;;;74.45;51.13;;;16.50;71.80;;;;;;4925091;28;95445;-55
2022/11/17 07:47:09;;;;;;;74.40;51.30;;;16.50;71.90;;;;;;4924420;28;95562;-56
2022/11/17 07:49:35;;;;;;;77.72;50.88;;;16.50;72.10;;;;;;4918174;28;97960;-54
2022/11/17 07:52:01;;;;;;;75.05;51.15;;;16.50;72.10;;;;;;4926724;28;95706;-58
2022/11/17 07:54:27;;;;;;;75.68;51.28;;;16.50;72.10;;;;;;4917195;28;96745;-57
2022/11/17 07:56:52;;;;;;;76.10;51.10;;;16.50;72.20;;;;;;4930680;28;96226;-57
2022/11/17 07:59:20;;;;;;;73.90;51.10;;;16.50;72.20;;;;;;4915987;28;98604;-56
2022/11/17 08:01:46;;;;;;;73.50;50.42;;;16.60;72.20;;;;;;4920882;28;98104;-53
2022/11/17 08:04:11;;;;;;;76.63;50.95;;;16.60;72.00;;;;;;4925088;28;95133;-56
2022/11/17 08:06:37;;;;;;;78.65;51.17;;;16.60;72.20;;;;;;4922861;28;94388;-56
2022/11/17 08:09:03;;;;;;;73.90;51.50;;;16.60;72.10;;;;;;4912428;28;96317;-56
2022/11/17 08:11:28;;;;;;;74.00;50.90;;;16.60;72.00;;;;;;4919117;28;99076;-57
2022/11/17 08:13:54;;;;;;;74.60;50.60;;;16.60;71.80;;;;;;4924620;28;96221;-54
2022/11/17 08:16:20;;;;;;;74.60;50.85;;;16.60;71.90;;;;;;4918649;28;98254;-52
2022/11/17 08:18:45;;;;;;;78.82;51.80;;;16.60;71.80;;;;;;4918225;28;99837;-54
2022/11/17 08:21:13;;;;;;;77.43;50.55;;;16.70;71.80;;;;;;4924561;28;95275;-54
2022/11/17 08:23:40;;;;;;;76.70;51.70;;;16.70;71.60;;;;;;4919241;28;95578;-50
2022/11/17 08:26:09;;;;;;;77.45;50.80;;;16.70;71.50;;;;;;4920701;28;98575;-54
2022/11/17 08:28:35;;;;;;;73.97;50.97;;;16.60;71.50;;;;;;4916374;28;96305;-54
2022/11/17 08:31:03;;;;;;;73.25;51.20;;;16.60;71.60;;;;;;4919465;28;94886;-53
2022/11/17 08:33:29;;;;;;;73.55;50.95;;;16.60;71.80;;;;;;4915150;28;100866;-52
2022/11/17 08:36:03;;;;;;;76.60;50.63;;;16.60;71.70;;;;;;4921542;28;97624;-56
2022/11/17 08:38:29;;;;;;;76.07;50.67;;;16.60;71.80;;;;;;4917668;28;101159;-56
2022/11/17 08:41:00;;;;;;;74.50;51.10;;;16.60;71.90;;;;;;4922324;28;96246;-58
2022/11/17 08:43:26;;;;;;;76.45;50.90;;;16.60;72.10;;;;;;4922707;28;97500;-60
2022/11/17 08:45:52;;;;;;;74.97;50.80;;;16.60;72.10;;;;;;4916417;28;95927;-52
2022/11/17 08:48:17;;;;;;;75.57;50.45;;;16.60;72.40;;;;;;4927089;28;96165;-53
2022/11/17 08:50:43;;;;;;;73.65;50.35;;;16.60;72.00;;;;;;4918308;28;95089;-53
2022/11/17 08:53:27;;;;;;;74.22;51.15;;;16.70;71.90;;;;;;4920404;28;98812;-52
2022/11/17 08:55:53;;;;;;;76.63;50.65;;;16.60;71.80;;;;;;4923721;28;95339;-51
2022/11/17 08:58:18;;;;;;;74.05;51.00;;;16.70;71.80;;;;;;4911541;28;95659;-53
2022/11/17 09:00:45;;;;;;;73.05;50.90;;;16.70;71.60;;;;;;4910175;28;96681;-56
2022/11/17 09:03:11;;;;;;;75.95;51.00;;;16.70;71.80;;;;;;4918660;28;96233;-53
2022/11/17 09:05:42;;;;;;;73.85;50.55;;;16.70;71.50;;;;;;4922411;28;95146;-54
2022/11/17 09:08:08;;;;;;;76.97;51.35;;;16.70;71.50;;;;;;4916523;28;97897;-54
2022/11/17 09:10:36;;;;;;;75.13;50.72;;;16.70;71.70;;;;;;4925008;28;98505;-49
2022/11/17 09:13:02;;;;;;;73.72;50.78;;;16.70;71.50;;;;;;4912245;28;97767;-55
2022/11/17 09:15:28;;;;;;;74.60;51.92;;;16.70;71.40;;;;;;4916434;28;101180;-54
2022/11/17 09:17:54;;;;;;;77.90;50.88;;;16.70;71.50;;;;;;4918247;28;96510;-54
2022/11/17 09:20:20;;;;;;;75.47;51.22;;;16.70;71.30;;;;;;4923360;28;94543;-55
2022/11/17 09:22:46;;;;;;;76.47;51.70;;;16.70;71.20;;;;;;4926852;28;98592;-54
2022/11/17 09:25:12;;;;;;;73.47;50.75;;;16.70;71.30;;;;;;4914351;28;96281;-57
2022/11/17 09:27:38;;;;;;;77.07;50.80;;;16.70;71.20;;;;;;4919341;28;96774;-53
2022/11/17 09:30:06;;;;;;;76.00;51.35;;;16.80;71.20;;;;;;4922180;28;96726;-54
2022/11/17 09:32:35;;;;;;;73.10;51.05;;;16.80;71.20;;;;;;4920773;28;100109;-54
2022/11/17 09:35:05;;;;;;;72.95;50.83;;;16.80;71.20;;;;;;4912147;28;97718;-53
2022/11/17 09:37:30;;;;;;;73.88;51.35;;;16.80;71.90;;;;;;4915121;28;97156;-54
2022/11/17 09:39:56;;;;;;;73.75;51.05;;;16.80;71.20;;;;;;4925168;28;95263;-58
2022/11/17 09:42:22;;;;;;;74.38;51.05;;;16.70;71.10;;;;;;4920054;28;98766;-55
2022/11/17 09:44:59;;;;;;;74.35;51.20;;;16.80;71.20;;;;;;4927621;28;96277;-55
2022/11/17 09:47:34;;;;;;;72.95;50.53;;;16.80;71.20;;;;;;4917276;28;96283;-57
2022/11/17 09:50:25;;;;;;;73.57;51.08;;;16.80;71.20;;;;;;4922332;28;95259;-56
2022/11/17 09:53:09;;;;;;;74.72;51.05;;;16.70;71.10;;;;;;4918560;28;100419;-54
2022/11/17 09:55:36;;;;;;;73.60;51.03;;;16.80;71.00;;;;;;4919064;28;97349;-58
2022/11/17 09:58:18;;;;;;;73.32;50.83;;;16.80;71.10;;;;;;4919833;28;95922;-55
2022/11/17 10:00:47;;;;;;;73.15;50.72;;;16.80;71.10;;;;;;4913164;28;98942;-55
2022/11/17 10:03:25;;;;;;;72.22;50.40;;;16.70;70.90;;;;;;4920191;28;94821;-55
2022/11/17 10:05:51;;;;;;;72.97;50.95;;;16.70;70.90;;;;;;4916520;28;95847;-56
2022/11/17 10:08:31;;;;;;;72.82;50.50;;;16.80;71.70;;;;;;4924542;28;96667;-54
2022/11/17 10:10:56;;;;;;;73.68;51.20;;;16.80;70.90;;;;;;4910883;28;97102;-54
2022/11/17 10:13:34;;;;;;;75.53;50.83;;;16.80;70.90;;;;;;4919621;28;96217;-56
2022/11/17 10:16:04;;;;;;;75.50;51.45;;;16.80;70.80;;;;;;4914610;28;95085;-56
2022/11/17 10:18:34;;;;;;;73.93;51.30;;;16.80;70.80;;;;;;4922702;28;98740;-52
2022/11/17 10:21:01;;;;;;;76.05;51.03;;;16.80;70.70;;;;;;4923257;28;96556;-56
2022/11/17 10:23:36;;;;;;;73.30;50.65;;;16.80;70.60;;;;;;4923086;28;96756;-58
2022/11/17 10:26:07;;;;;;;73.35;51.53;;;16.80;70.70;;;;;;4925942;28;97953;-57
2022/11/17 10:28:33;;;;;;;73.55;50.85;;;16.80;70.80;;;;;;4913446;28;95546;-56
2022/11/17 10:31:10;;;;;;;73.22;51.17;;;16.80;70.80;;;;;;4919482;28;98765;-53
2022/11/17 10:33:47;;;;;;;75.43;50.83;;;16.80;70.60;;;;;;4923296;28;94731;-57
2022/11/17 10:36:30;;;;;;;73.88;50.65;;;16.90;71.30;;;;;;4922538;28;94393;-54
2022/11/17 10:38:59;;;;;;;74.50;50.90;;;16.90;70.50;;;;;;4918485;28;95222;-54
2022/11/17 10:41:39;;;;;;;75.53;51.35;;;16.90;70.50;;;;;;4922091;28;96489;-55
2022/11/17 10:44:11;;;;;;;77.65;51.03;;;16.90;70.50;;;;;;4913684;28;95972;-55
2022/11/17 10:46:58;;;;;;;74.47;51.00;;;16.90;70.60;;;;;;4921427;28;97174;-57
2022/11/17 10:49:36;;;;;;;72.93;50.50;;;16.90;70.30;;;;;;4924451;28;95298;-55
2022/11/17 10:52:08;;;;;;;73.35;51.42;;;16.90;70.30;;;;;;4912433;28;95264;-54
2022/11/17 10:54:33;;;;;;;75.88;51.80;;;16.90;70.40;;;;;;4912815;28;96459;-56
2022/11/17 10:57:04;;;;;;;80.53;56.28;;;16.90;70.50;;;;;;4918743;28;95121;-57
2022/11/17 10:59:32;;;;;;;81.73;56.27;;;16.90;70.30;;;;;;4918645;28;96523;-51
2022/11/17 11:02:28;;;;;;;87.38;59.22;;;16.90;70.10;;;;;;4928175;28;99734;-52
2022/11/17 11:05:06;;;;;;;86.55;60.63;;;17.00;70.20;;;;;;4926222;28;95165;-51
2022/11/17 11:07:32;;;;;;;89.97;62.25;;;17.00;69.90;;;;;;4925428;28;95167;-54
2022/11/17 11:10:06;;;;;;;88.68;62.38;;;17.00;70.00;;;;;;4917200;28;98548;-55
2022/11/17 11:12:42;;;;;;;91.40;62.55;;;17.00;70.10;;;;;;4928899;28;96223;-53
2022/11/17 11:15:18;;;;;;;91.85;63.15;;;17.00;70.10;;;;;;4921850;28;96677;-52
2022/11/17 11:17:43;;;;;;;88.13;61.63;;;17.00;70.00;;;;;;4922164;28;97257;-56
2022/11/17 11:20:15;;;;;;;89.10;62.30;;;17.00;70.00;;;;;;4925592;28;95371;-55
2022/11/17 11:23:07;;;;;;;90.28;62.58;;;17.00;70.10;;;;;;4923935;28;98058;-52
2022/11/17 11:25:48;;;;;;;86.78;60.83;;;17.00;70.00;;;;;;4922280;28;99379;-53
2022/11/17 11:28:16;;;;;;;90.63;62.33;;;17.00;70.00;;;;;;4912687;28;94735;-56
2022/11/17 11:30:57;;;;;;;87.55;61.22;;;17.10;70.80;;;;;;4921474;28;100907;-58
2022/11/17 11:33:41;;;;;;;93.18;62.47;;;17.10;70.90;;;;;;4921954;28;97083;-55
2022/11/17 11:36:15;;;;;;;87.50;61.53;;;17.10;71.30;;;;;;4923863;28;97028;-59
2022/11/17 11:38:54;;;;;;;89.20;61.00;;;17.10;71.40;;;;;;4923100;28;95257;-56
2022/11/17 11:41:41;;;;;;;87.20;59.88;;;17.20;71.90;;;;;;4912032;28;96570;-55
2022/11/17 11:44:17;;;;;;;93.30;60.20;;;17.10;71.20;;;;;;4921291;28;96767;-55
2022/11/17 11:46:58;;;;;;;88.03;60.10;;;17.10;70.80;;;;;;4921275;28;94761;-55
2022/11/17 11:49:42;;;;;;;88.15;59.63;;;17.10;71.00;;;;;;4920442;28;95089;-54
2022/11/17 11:52:19;;;;;;;84.18;59.28;;;17.00;71.00;;;;;;4914564;28;94821;-54
2022/11/17 11:55:04;;;;;;;84.53;58.65;;;17.00;71.00;;;;;;4913438;28;96602;-55
2022/11/17 11:57:39;;;;;;;86.10;59.03;;;17.00;71.00;;;;;;4916357;28;96415;-56
2022/11/17 12:00:13;;;;;;;86.22;60.90;;;17.00;70.90;;;;;;4918542;28;95272;-59
2022/11/17 12:02:50;;;;;;;85.43;59.30;;;17.00;70.90;;;;;;4927221;28;99065;-57
2022/11/17 12:05:35;;;;;;;85.43;59.85;;;17.00;70.80;;;;;;4929043;28;101354;-54
2022/11/17 12:08:28;;;;;;;84.13;58.50;;;17.00;70.80;;;;;;4917884;28;97524;-55
2022/11/17 12:11:58;;;;;;;83.38;58.22;;;17.00;70.60;;;;;;4922604;28;98211;-54
2022/11/17 12:13:50;;;;;;;80.35;55.97;;;17.00;70.60;;;;;;4912641;28;96341;-57
2022/11/17 12:16:26;;;;;;;85.45;58.95;;;17.10;70.60;;;;;;4918514;28;95042;-57
2022/11/17 12:18:52;;;;;;;84.97;57.83;;;17.00;70.70;;;;;;4921137;28;100508;-56
2022/11/17 12:21:25;;;;;;;80.43;56.53;;;17.00;70.70;;;;;;4920426;28;98096;-56
2022/11/17 12:24:19;;;;;;;86.07;59.20;;;17.00;70.60;;;;;;4928782;28;97724;-58
2022/11/17 12:26:45;;;;;;;83.13;57.78;;;17.00;70.70;;;;;;4927275;28;95498;-55
2022/11/17 12:29:23;;;;;;;85.38;58.28;;;17.00;70.60;;;;;;4922962;28;101391;-58
2022/11/17 12:31:57;;;;;;;82.32;56.28;;;17.00;70.60;;;;;;4922214;28;95528;-58
2022/11/17 12:34:36;;;;;;;83.45;58.15;;;17.00;70.50;;;;;;4922788;28;95452;-57
2022/11/17 12:37:12;;;;;;;82.85;57.80;;;17.00;71.30;;;;;;4920398;28;96080;-52
2022/11/17 12:40:00;;;;;;;82.13;56.53;;;17.10;70.30;;;;;;4925809;28;96853;-53
2022/11/17 12:42:28;;;;;;;82.55;57.53;;;17.10;70.40;;;;;;4928486;28;95919;-56
2022/11/17 12:45:00;;;;;;;80.32;56.53;;;17.00;70.40;;;;;;4928166;28;99408;-54
2022/11/17 12:47:31;;;;;;;80.70;55.97;;;17.00;70.50;;;;;;4922872;28;99223;-54
2022/11/17 12:50:18;;;;;;;81.78;56.25;;;17.10;70.60;;;;;;4921177;28;95257;-54
2022/11/17 12:53:05;;;;;;;78.18;55.25;;;17.00;70.50;;;;;;4922255;28;95671;-52
2022/11/17 12:55:34;;;;;;;81.10;55.88;;;17.00;70.40;;;;;;4913905;28;96852;-56
2022/11/17 12:58:17;;;;;;;81.82;56.80;;;17.10;70.20;;;;;;4926050;28;98772;-53
2022/11/17 13:00:59;;;;;;;79.97;54.70;;;17.10;70.20;;;;;;4921333;28;95066;-55
2022/11/17 13:03:44;;;;;;;80.88;55.78;;;17.10;70.30;;;;;;4920912;28;96329;-52
2022/11/17 13:06:13;;;;;;;80.93;55.70;;;17.10;70.20;;;;;;4919726;28;100274;-54
2022/11/17 13:08:39;;;;;;;79.50;54.95;;;17.10;70.20;;;;;;4922033;28;97547;-55
2022/11/17 13:11:13;;;;;;;80.65;55.85;;;17.10;70.20;;;;;;4926801;28;96152;-54